Time;durP1;ratioP1;P1;durP2;ratioP2;P2;SDS_P1;SDS_P2;PMS_P1;PMS_P2;Temp;Humidity;BMP_temperature;BMP_pressure;BME280_temperature;BME280_humidity;BME280_pressure;Samples;Min_cycle;Max_cycle;Signal;HPM_P1;HPM_P2
2022/05/01 00:00:32;;;;;;;3.45;0.80;;;19.10;69.90;;;;;;5109536;23;20024;-50
2022/05/01 00:02:34;;;;;;;2.88;0.70;;;19.10;69.20;;;;;;5107428;23;20127;-56
2022/05/01 00:04:36;;;;;;;4.03;0.98;;;19.10;69.40;;;;;;5116885;22;20891;-48
2022/05/01 00:06:38;;;;;;;5.30;1.17;;;19.10;69.50;;;;;;5117284;22;20027;-49
2022/05/01 00:08:42;;;;;;;11.80;1.45;;;19.10;69.20;;;;;;5113589;22;20032;-50
2022/05/01 00:10:45;;;;;;;10.70;2.60;;;19.10;68.40;;;;;;5117358;22;20891;-52
2022/05/01 00:12:47;;;;;;;6.97;1.65;;;19.10;68.30;;;;;;5114959;22;20553;-48
2022/05/01 00:14:49;;;;;;;11.45;1.40;;;19.10;68.30;;;;;;5114837;22;20051;-48
2022/05/01 00:16:51;;;;;;;5.15;1.50;;;19.20;68.20;;;;;;5118594;22;20024;-54
2022/05/01 00:18:53;;;;;;;10.52;1.20;;;19.10;68.00;;;;;;5120647;22;20514;-48
2022/05/01 00:20:55;;;;;;;5.93;1.27;;;19.10;67.30;;;;;;5115958;22;20220;-51
2022/05/01 00:22:57;;;;;;;3.60;0.90;;;19.10;67.70;;;;;;5116770;22;20039;-52
2022/05/01 00:25:00;;;;;;;3.05;1.10;;;19.10;67.60;;;;;;5124366;22;20059;-47
2022/05/01 00:27:02;;;;;;;11.57;1.95;;;19.10;67.50;;;;;;5117901;22;20079;-48
2022/05/01 00:29:06;;;;;;;2.35;1.30;;;19.10;67.50;;;;;;5115059;22;20864;-49
2022/05/01 00:31:09;;;;;;;1.75;1.10;;;19.10;67.50;;;;;;5117098;23;20645;-52
2022/05/01 00:37:52;;;;;;;1.60;0.90;;;19.10;67.40;;;;;;5113175;23;20024;-53
2022/05/01 00:39:55;;;;;;;2.53;1.20;;;19.00;67.20;;;;;;5118972;23;20047;-48
2022/05/01 00:41:57;;;;;;;4.00;1.05;;;19.10;67.30;;;;;;5117405;22;20028;-47
2022/05/01 00:44:19;;;;;;;2.60;0.98;;;19.00;67.20;;;;;;5109922;23;20036;-50
2022/05/01 00:46:21;;;;;;;2.72;0.90;;;19.10;67.20;;;;;;5116106;22;20354;-47
2022/05/01 00:48:23;;;;;;;3.28;1.40;;;19.10;67.10;;;;;;5116336;22;20035;-46
2022/05/01 00:50:25;;;;;;;1.15;0.70;;;19.10;67.00;;;;;;5119541;22;20098;-54
2022/05/01 00:52:28;;;;;;;1.85;0.90;;;19.10;66.90;;;;;;5123302;22;20532;-50
2022/05/01 00:54:31;;;;;;;2.40;0.90;;;19.10;66.80;;;;;;5109131;22;20496;-48
2022/05/01 00:56:40;;;;;;;2.28;1.00;;;19.10;66.60;;;;;;5114876;22;20028;-49
2022/05/01 00:58:43;;;;;;;3.15;1.00;;;19.10;66.40;;;;;;5120088;22;20906;-54
2022/05/01 01:00:47;;;;;;;1.98;1.00;;;19.10;66.20;;;;;;5111449;22;20485;-50
2022/05/01 01:02:49;;;;;;;2.38;0.80;;;19.10;66.10;;;;;;5121385;22;20609;-49
2022/05/01 01:04:51;;;;;;;1.70;0.88;;;19.10;66.10;;;;;;5122089;22;20055;-51
2022/05/01 01:06:53;;;;;;;2.33;0.90;;;19.10;66.00;;;;;;5123934;22;20035;-48
2022/05/01 01:08:56;;;;;;;1.50;0.90;;;19.10;66.50;;;;;;5121438;22;20032;-53
2022/05/01 01:10:58;;;;;;;2.08;0.80;;;19.10;65.80;;;;;;5122238;22;20027;-49
2022/05/01 01:13:00;;;;;;;1.30;0.80;;;19.10;65.80;;;;;;5122883;22;20319;-50
2022/05/01 01:15:02;;;;;;;3.97;1.02;;;19.10;66.00;;;;;;5126997;23;20024;-49
2022/05/01 01:17:04;;;;;;;2.45;0.95;;;19.10;65.60;;;;;;5127109;22;20016;-53
2022/05/01 01:19:09;;;;;;;1.58;0.93;;;19.10;65.60;;;;;;5127739;22;20035;-52
2022/05/01 01:21:11;;;;;;;3.08;1.10;;;19.20;65.80;;;;;;5129649;23;20043;-49
2022/05/01 01:23:15;;;;;;;2.63;1.17;;;19.20;66.20;;;;;;5128836;22;20051;-53
2022/05/01 01:25:22;;;;;;;3.08;1.15;;;19.20;66.50;;;;;;5131502;22;20531;-46
2022/05/01 01:27:25;;;;;;;1.45;0.90;;;19.20;66.50;;;;;;5140681;23;20687;-48
2022/05/01 01:31:48;;;;;;;3.22;1.38;;;19.20;66.80;;;;;;5139034;23;20261;-47
2022/05/01 01:33:53;;;;;;;2.90;1.40;;;19.20;66.50;;;;;;5141045;22;20031;-56
2022/05/01 01:35:59;;;;;;;2.70;1.05;;;19.20;66.50;;;;;;5137992;22;20066;-47
2022/05/01 01:38:01;;;;;;;1.52;0.90;;;19.20;66.20;;;;;;5133925;22;20465;-52
2022/05/01 01:40:03;;;;;;;2.20;1.00;;;19.20;66.20;;;;;;5137422;22;20039;-48
2022/05/01 01:42:11;;;;;;;3.88;1.10;;;19.30;65.90;;;;;;5140146;22;20024;-47
2022/05/01 01:44:14;;;;;;;3.88;1.30;;;19.30;65.80;;;;;;5133752;22;20024;-50
2022/05/01 01:46:17;;;;;;;3.20;1.20;;;19.30;66.10;;;;;;5114721;22;20024;-47
2022/05/01 01:48:21;;;;;;;3.13;1.53;;;19.30;66.40;;;;;;5105595;22;20066;-54
2022/05/01 01:50:23;;;;;;;3.67;1.50;;;19.30;66.30;;;;;;5120822;22;20028;-52
2022/05/01 01:52:25;;;;;;;6.13;1.70;;;19.30;65.90;;;;;;5117874;22;20031;-54
2022/05/01 01:54:28;;;;;;;3.58;2.00;;;19.40;65.50;;;;;;5111423;23;20993;-50
2022/05/01 01:56:30;;;;;;;4.60;2.20;;;19.40;65.20;;;;;;5109427;22;20032;-48
2022/05/01 01:58:32;;;;;;;4.72;2.25;;;19.40;64.90;;;;;;5114527;22;20052;-49
2022/05/01 02:00:35;;;;;;;5.13;2.38;;;19.40;64.70;;;;;;5119499;22;20135;-47
2022/05/01 02:02:37;;;;;;;4.60;1.95;;;19.40;64.20;;;;;;5114407;22;20550;-50
2022/05/01 02:04:39;;;;;;;5.30;1.83;;;19.40;63.90;;;;;;5112435;23;20035;-49
2022/05/01 02:06:43;;;;;;;5.68;1.90;;;19.50;63.90;;;;;;5121504;22;20064;-47
2022/05/01 02:08:47;;;;;;;4.32;1.70;;;19.40;64.10;;;;;;5115408;22;20031;-48
2022/05/01 02:10:50;;;;;;;4.10;1.88;;;19.50;64.30;;;;;;5111088;23;20028;-49
2022/05/01 02:12:53;;;;;;;3.90;1.65;;;19.50;64.20;;;;;;5117908;22;20548;-52
2022/05/01 02:14:55;;;;;;;3.35;1.60;;;19.50;64.30;;;;;;5117810;23;20036;-52
2022/05/01 02:16:57;;;;;;;4.07;1.85;;;19.50;64.40;;;;;;5114660;22;20043;-47
2022/05/01 02:19:00;;;;;;;3.92;1.55;;;19.60;64.60;;;;;;5112785;23;20393;-49
2022/05/01 02:23:24;;;;;;;5.05;1.70;;;19.60;64.70;;;;;;5110270;23;20028;-51
2022/05/01 02:25:28;;;;;;;3.10;1.42;;;19.60;64.90;;;;;;5120530;22;20106;-47
2022/05/01 02:27:30;;;;;;;3.17;1.33;;;19.70;65.10;;;;;;5118661;22;20946;-52
2022/05/01 02:29:32;;;;;;;4.28;2.10;;;19.70;65.30;;;;;;5110800;22;20435;-51
2022/05/01 02:31:35;;;;;;;4.00;1.50;;;19.70;65.60;;;;;;5111392;23;20051;-52
2022/05/01 02:33:37;;;;;;;3.30;1.50;;;19.70;65.80;;;;;;5118722;23;20027;-54
2022/05/01 02:35:39;;;;;;;4.15;1.92;;;19.80;66.00;;;;;;5112797;23;20449;-48
2022/05/01 02:37:41;;;;;;;4.78;1.60;;;19.80;66.00;;;;;;5113332;23;20032;-47
2022/05/01 02:39:44;;;;;;;5.18;1.58;;;19.80;65.90;;;;;;5119727;22;20451;-49
2022/05/01 02:41:46;;;;;;;5.63;1.60;;;19.80;65.70;;;;;;5110552;23;20987;-46
2022/05/01 02:43:48;;;;;;;4.22;1.60;;;19.90;65.70;;;;;;5113831;22;20028;-51
2022/05/01 02:45:50;;;;;;;3.75;1.75;;;19.90;65.60;;;;;;5120293;22;20138;-51
2022/05/01 02:47:53;;;;;;;3.85;1.63;;;19.90;65.60;;;;;;5113038;23;20210;-48
2022/05/01 02:49:55;;;;;;;4.22;1.90;;;20.00;65.50;;;;;;5116069;22;20106;-52
2022/05/01 02:51:58;;;;;;;4.85;1.67;;;20.00;65.30;;;;;;5116091;22;20035;-53
2022/05/01 02:54:04;;;;;;;3.42;1.30;;;20.00;65.30;;;;;;5122233;23;20024;-48
2022/05/01 02:56:06;;;;;;;3.33;1.38;;;20.00;65.20;;;;;;5119649;22;20028;-52
2022/05/01 02:58:08;;;;;;;6.60;1.58;;;20.00;65.00;;;;;;5117258;22;20048;-52
2022/05/01 03:00:16;;;;;;;3.70;1.20;;;20.10;64.90;;;;;;5121298;22;21061;-55
2022/05/01 03:02:18;;;;;;;3.30;1.45;;;20.10;64.70;;;;;;5123552;22;20107;-52
2022/05/01 03:04:21;;;;;;;3.28;1.60;;;20.10;64.60;;;;;;5117803;22;20024;-53
2022/05/01 03:06:24;;;;;;;5.30;2.08;;;20.20;64.50;;;;;;5117480;22;20024;-52
2022/05/01 03:08:27;;;;;;;3.63;1.30;;;20.20;64.60;;;;;;5121983;22;20080;-53
2022/05/01 03:10:29;;;;;;;4.00;1.45;;;20.20;64.40;;;;;;5122181;23;20028;-46
2022/05/01 03:12:31;;;;;;;5.18;1.73;;;20.30;64.30;;;;;;5121163;22;20034;-51
2022/05/01 03:14:33;;;;;;;5.63;1.40;;;20.30;64.40;;;;;;5111831;22;20024;-48
2022/05/01 03:16:35;;;;;;;6.18;1.80;;;20.40;64.30;;;;;;5124764;22;20549;-52
2022/05/01 03:23:19;;;;;;;6.45;1.70;;;20.50;63.70;;;;;;5118157;23;20024;-52
2022/05/01 03:25:22;;;;;;;3.78;1.73;;;20.50;63.50;;;;;;5122303;22;20034;-50
2022/05/01 03:27:24;;;;;;;3.40;1.40;;;20.60;63.50;;;;;;5118139;22;20106;-50
2022/05/01 03:29:26;;;;;;;3.00;1.23;;;20.60;63.50;;;;;;5117614;22;20039;-46
2022/05/01 03:31:29;;;;;;;3.40;1.45;;;20.60;63.50;;;;;;5124656;22;20024;-47
2022/05/01 03:33:32;;;;;;;5.57;1.30;;;20.70;63.60;;;;;;5116575;23;20863;-48
2022/05/01 03:35:37;;;;;;;3.90;1.60;;;20.80;63.50;;;;;;5117383;23;20777;-53
2022/05/01 03:37:39;;;;;;;3.75;1.52;;;20.80;63.40;;;;;;5117225;22;20136;-48
2022/05/01 03:39:41;;;;;;;5.60;1.38;;;20.80;63.20;;;;;;5124675;22;20085;-47
2022/05/01 03:41:43;;;;;;;2.67;1.38;;;20.90;63.30;;;;;;5113558;23;20035;-47
2022/05/01 03:43:45;;;;;;;3.25;1.02;;;20.90;63.20;;;;;;5116785;22;20031;-50
2022/05/01 03:45:48;;;;;;;5.15;1.67;;;21.00;63.20;;;;;;5123466;22;20082;-51
2022/05/01 03:47:50;;;;;;;2.78;1.30;;;21.00;63.20;;;;;;5119379;22;20060;-50
2022/05/01 03:49:52;;;;;;;3.70;1.25;;;21.10;63.20;;;;;;5114454;23;20161;-51
2022/05/01 03:51:54;;;;;;;3.50;1.30;;;21.10;63.30;;;;;;5123768;22;20581;-53
2022/05/01 03:53:57;;;;;;;3.42;1.67;;;21.20;63.40;;;;;;5094408;23;20923;-52
2022/05/01 03:55:59;;;;;;;2.37;1.30;;;21.20;63.30;;;;;;5115776;23;20110;-49
2022/05/01 03:58:02;;;;;;;1.63;0.93;;;21.30;63.30;;;;;;5117006;23;20349;-52
2022/05/01 04:00:05;;;;;;;2.55;1.23;;;21.30;63.10;;;;;;5124043;22;20521;-50
2022/05/01 04:02:07;;;;;;;;;;;21.40;63.10;;;;;;5120114;22;20051;-49
2022/05/01 04:04:09;;;;;;;2.00;1.10;;;21.40;63.20;;;;;;5115417;22;20008;-47
2022/05/01 04:06:11;;;;;;;2.72;1.35;;;21.50;63.10;;;;;;5125903;22;20028;-50
2022/05/01 04:08:13;;;;;;;3.03;1.33;;;21.50;63.10;;;;;;5119258;22;20267;-51
2022/05/01 04:10:15;;;;;;;2.83;1.20;;;21.60;63.10;;;;;;5118348;22;20028;-47
2022/05/01 04:12:18;;;;;;;2.40;1.25;;;21.70;63.10;;;;;;5123975;22;20024;-52
2022/05/01 04:14:20;;;;;;;1.88;1.00;;;21.70;63.10;;;;;;5122910;22;20439;-54
2022/05/01 04:16:22;;;;;;;1.77;1.10;;;21.80;63.10;;;;;;5117848;22;20109;-49
2022/05/01 04:18:25;;;;;;;2.30;1.10;;;21.80;63.00;;;;;;5119984;22;20020;-52
2022/05/01 04:20:28;;;;;;;3.08;1.10;;;21.90;63.00;;;;;;5123536;22;20860;-48
2022/05/01 04:22:43;;;;;;;2.85;1.05;;;22.00;63.00;;;;;;5115868;23;20097;-47
2022/05/01 04:24:46;;;;;;;2.80;1.05;;;22.00;62.80;;;;;;5122459;22;20024;-48
2022/05/01 04:26:47;;;;;;;;;;;22.10;62.80;;;;;;5121165;22;20035;-49
2022/05/01 04:31:10;;;;;;;2.15;0.95;;;22.20;62.60;;;;;;5119473;23;20023;-46
2022/05/01 04:33:14;;;;;;;2.63;0.95;;;22.20;62.60;;;;;;5121930;22;20200;-45
2022/05/01 04:35:26;;;;;;;2.03;0.90;;;22.20;62.80;;;;;;5123351;22;20024;-49
2022/05/01 04:37:28;;;;;;;2.30;1.00;;;22.20;63.00;;;;;;5121661;23;20028;-49
2022/05/01 04:39:30;;;;;;;2.45;0.93;;;22.20;63.00;;;;;;5118327;23;20032;-51
2022/05/01 04:41:32;;;;;;;3.13;0.82;;;22.20;63.10;;;;;;5120068;22;20024;-51
2022/05/01 04:43:36;;;;;;;1.80;0.95;;;22.20;63.30;;;;;;5128960;22;20142;-48
2022/05/01 04:45:40;;;;;;;2.38;1.17;;;22.20;63.10;;;;;;5119807;22;20024;-46
2022/05/01 04:47:42;;;;;;;0.93;0.68;;;22.20;63.00;;;;;;5121438;22;20092;-50
2022/05/01 04:49:44;;;;;;;3.20;0.98;;;22.20;63.10;;;;;;5122319;23;20151;-49
2022/05/01 04:51:47;;;;;;;1.63;0.82;;;22.20;63.10;;;;;;5125428;22;20027;-48
2022/05/01 04:53:49;;;;;;;2.92;1.17;;;22.20;63.20;;;;;;5121192;22;20919;-52
2022/05/01 04:55:54;;;;;;;1.30;0.90;;;22.20;63.20;;;;;;5123092;22;20482;-47
2022/05/01 04:57:57;;;;;;;2.92;0.80;;;22.20;63.30;;;;;;5129365;22;20455;-50
2022/05/01 05:00:00;;;;;;;1.80;0.68;;;22.20;63.30;;;;;;5122363;22;20290;-52
2022/05/01 05:02:03;;;;;;;0.85;0.60;;;22.20;63.30;;;;;;5119982;22;20063;-52
2022/05/01 05:04:05;;;;;;;3.28;0.85;;;22.30;63.20;;;;;;5124819;22;20028;-52
2022/05/01 05:06:07;;;;;;;2.20;0.80;;;22.30;63.00;;;;;;5129987;22;20848;-52
2022/05/01 05:10:30;;;;;;;1.00;0.60;;;22.40;62.90;;;;;;5128896;23;20056;-50
2022/05/01 05:12:32;;;;;;;2.22;0.80;;;22.40;62.90;;;;;;5126211;22;20035;-50
2022/05/01 05:14:35;;;;;;;2.42;0.93;;;22.40;62.90;;;;;;5126751;22;20623;-54
2022/05/01 05:16:38;;;;;;;0.82;0.80;;;22.40;62.90;;;;;;5129703;22;20047;-54
2022/05/01 05:18:43;;;;;;;3.45;1.00;;;22.50;62.90;;;;;;5125800;23;20028;-52
2022/05/01 05:20:45;;;;;;;2.15;1.20;;;22.50;62.90;;;;;;5125156;22;20024;-54
2022/05/01 05:22:47;;;;;;;2.88;1.20;;;22.50;63.00;;;;;;5123646;23;20028;-53
2022/05/01 05:24:50;;;;;;;1.65;1.15;;;22.50;63.10;;;;;;5132565;22;20032;-52
2022/05/01 05:26:52;;;;;;;1.92;1.27;;;22.50;63.10;;;;;;5128406;22;20086;-54
2022/05/01 05:28:54;;;;;;;2.55;1.38;;;22.60;63.00;;;;;;5131626;22;20104;-49
2022/05/01 05:30:58;;;;;;;2.03;1.30;;;22.60;62.90;;;;;;5128792;22;20028;-54
2022/05/01 05:33:00;;;;;;;3.55;1.70;;;22.70;62.70;;;;;;5130887;23;20047;-50
2022/05/01 05:35:02;;;;;;;2.72;1.73;;;22.70;62.70;;;;;;5127319;22;20972;-52
2022/05/01 05:37:04;;;;;;;1.80;1.27;;;22.70;62.60;;;;;;5126221;22;20094;-47
2022/05/01 05:39:06;;;;;;;3.35;1.80;;;22.70;62.60;;;;;;5132336;22;20028;-51
2022/05/01 05:41:09;;;;;;;3.57;1.77;;;22.70;62.70;;;;;;5103817;23;20558;-46
2022/05/01 05:43:11;;;;;;;5.85;2.45;;;22.70;62.60;;;;;;5133888;22;20500;-48
2022/05/01 05:45:14;;;;;;;3.88;1.83;;;22.70;62.60;;;;;;5139508;22;20379;-52
2022/05/01 05:47:16;;;;;;;4.72;2.00;;;22.70;62.60;;;;;;5135420;23;20865;-47
2022/05/01 05:49:18;;;;;;;3.13;1.93;;;22.70;62.70;;;;;;5129985;22;20028;-51
2022/05/01 05:51:21;;;;;;;4.30;2.10;;;22.60;62.60;;;;;;5129242;22;20036;-49
2022/05/01 05:53:23;;;;;;;8.38;2.97;;;22.60;62.50;;;;;;5138365;22;20643;-51
2022/05/01 05:55:25;;;;;;;6.30;2.65;;;22.60;62.60;;;;;;5134429;22;20059;-47
2022/05/01 05:57:27;;;;;;;5.30;2.38;;;22.60;62.70;;;;;;5128472;22;20068;-46
2022/05/01 05:59:30;;;;;;;6.78;2.53;;;22.50;62.80;;;;;;5117185;23;20455;-51
2022/05/01 06:01:33;;;;;;;4.22;2.47;;;22.50;62.90;;;;;;5122814;22;20103;-47
2022/05/01 06:03:35;;;;;;;4.18;2.28;;;22.50;63.10;;;;;;5116768;22;20024;-46
2022/05/01 06:05:38;;;;;;;4.03;1.73;;;22.50;63.20;;;;;;5113754;23;20497;-47
2022/05/01 06:07:40;;;;;;;5.07;2.20;;;22.50;63.90;;;;;;5116569;22;20086;-51
2022/05/01 06:09:42;;;;;;;4.05;1.95;;;22.50;63.20;;;;;;5109819;23;20195;-49
2022/05/01 06:11:44;;;;;;;4.68;2.10;;;22.50;63.30;;;;;;5107874;23;20034;-47
2022/05/01 06:13:46;;;;;;;5.45;2.00;;;22.50;63.40;;;;;;5118670;22;20034;-45
2022/05/01 06:15:49;;;;;;;5.88;2.28;;;22.40;63.30;;;;;;5109507;23;20028;-46
2022/05/01 06:17:51;;;;;;;5.10;1.52;;;22.40;63.40;;;;;;5112092;23;20125;-50
2022/05/01 06:19:53;;;;;;;4.25;1.98;;;22.50;63.50;;;;;;5118653;22;20032;-53
2022/05/01 06:21:55;;;;;;;4.22;2.35;;;22.40;63.40;;;;;;5114413;22;20024;-45
2022/05/01 06:23:58;;;;;;;3.47;1.80;;;22.40;63.40;;;;;;5109659;22;20035;-47
2022/05/01 06:26:03;;;;;;;3.40;1.55;;;22.50;63.40;;;;;;5112506;22;20824;-49
2022/05/01 06:28:06;;;;;;;1.95;1.20;;;22.50;63.40;;;;;;5117017;22;20077;-45
2022/05/01 06:30:11;;;;;;;4.57;1.40;;;22.50;63.40;;;;;;5110735;22;20067;-48
2022/05/01 06:32:19;;;;;;;4.63;2.03;;;22.50;63.40;;;;;;5111780;22;20042;-49
2022/05/01 06:34:21;;;;;;;4.28;1.40;;;22.50;64.00;;;;;;5112279;22;20443;-51
2022/05/01 06:36:26;;;;;;;4.03;1.43;;;22.50;63.90;;;;;;5118611;22;20031;-49
2022/05/01 06:38:30;;;;;;;4.18;1.48;;;22.60;63.80;;;;;;5114090;23;20078;-51
2022/05/01 06:40:32;;;;;;;4.65;1.40;;;22.50;63.70;;;;;;5110087;22;20179;-48
2022/05/01 06:42:34;;;;;;;3.45;1.40;;;22.60;63.60;;;;;;5110466;22;20027;-51
2022/05/01 06:44:37;;;;;;;2.77;1.20;;;22.60;63.60;;;;;;5116802;23;20086;-49
2022/05/01 06:46:39;;;;;;;3.75;1.55;;;22.50;63.50;;;;;;5111780;22;20602;-55
2022/05/01 06:48:41;;;;;;;2.60;1.10;;;22.50;63.50;;;;;;5111502;22;20031;-50
2022/05/01 06:50:44;;;;;;;2.65;1.15;;;22.50;63.60;;;;;;5116604;22;20502;-48
2022/05/01 06:52:46;;;;;;;4.60;1.42;;;22.40;63.60;;;;;;5114261;22;20561;-49
2022/05/01 06:54:48;;;;;;;5.53;1.48;;;22.40;63.70;;;;;;5107162;23;20527;-49
2022/05/01 06:56:51;;;;;;;4.40;1.20;;;22.40;63.80;;;;;;5112703;22;20071;-50
2022/05/01 06:58:53;;;;;;;1.95;1.20;;;22.40;63.90;;;;;;5117798;23;20051;-46
2022/05/01 07:00:55;;;;;;;3.38;1.50;;;22.40;63.90;;;;;;5112058;22;20039;-51
2022/05/01 07:02:58;;;;;;;3.47;1.13;;;22.30;63.90;;;;;;5111870;22;20645;-47
2022/05/01 07:05:00;;;;;;;4.25;1.25;;;22.30;63.90;;;;;;5116294;22;20067;-47
2022/05/01 07:07:03;;;;;;;2.17;1.10;;;22.30;64.00;;;;;;5110662;23;20129;-46
2022/05/01 07:09:05;;;;;;;4.15;1.25;;;22.30;64.10;;;;;;5113486;22;20100;-47
2022/05/01 07:11:08;;;;;;;4.38;1.38;;;22.30;64.10;;;;;;5116753;22;20903;-54
2022/05/01 07:13:10;;;;;;;2.90;1.10;;;22.30;64.20;;;;;;5114488;23;20945;-51
2022/05/01 07:15:12;;;;;;;2.70;1.13;;;22.20;64.80;;;;;;5113313;22;20028;-47
2022/05/01 07:17:15;;;;;;;3.00;0.80;;;22.20;64.30;;;;;;5113876;22;20035;-54
2022/05/01 07:19:17;;;;;;;2.90;1.00;;;22.20;64.30;;;;;;5120272;22;20028;-47
2022/05/01 07:21:19;;;;;;;0.88;0.70;;;22.20;64.40;;;;;;5112752;22;20059;-51
2022/05/01 07:23:22;;;;;;;2.80;1.05;;;22.20;64.40;;;;;;5113148;22;20693;-48
2022/05/01 07:25:24;;;;;;;;;;;22.10;64.50;;;;;;5120609;22;20028;-51
2022/05/01 07:27:26;;;;;;;1.98;0.93;;;22.10;64.50;;;;;;5116365;22;20044;-47
2022/05/01 07:29:28;;;;;;;2.08;0.73;;;22.10;64.50;;;;;;5114392;22;20036;-48
2022/05/01 07:31:31;;;;;;;0.85;0.63;;;22.10;64.60;;;;;;5120968;23;20032;-54
2022/05/01 07:33:33;;;;;;;2.80;0.95;;;22.10;64.60;;;;;;5123252;22;20101;-52
2022/05/01 07:35:35;;;;;;;1.52;0.77;;;22.10;64.70;;;;;;5116747;23;20427;-50
2022/05/01 07:37:37;;;;;;;1.55;1.00;;;22.00;64.70;;;;;;5118448;22;20024;-48
2022/05/01 07:39:40;;;;;;;1.15;0.70;;;22.00;64.70;;;;;;5126769;22;20059;-51
2022/05/01 07:41:42;;;;;;;1.87;0.70;;;22.00;64.80;;;;;;5118690;22;20796;-49
2022/05/01 07:43:47;;;;;;;0.55;0.50;;;22.00;64.80;;;;;;5121331;22;20209;-50
2022/05/01 07:45:49;;;;;;;2.22;0.80;;;22.00;64.90;;;;;;5122721;22;20040;-53
2022/05/01 07:47:51;;;;;;;1.42;0.95;;;22.00;65.00;;;;;;5111442;23;20377;-51
2022/05/01 07:49:53;;;;;;;1.67;0.70;;;22.00;65.00;;;;;;5106886;22;20046;-46
2022/05/01 07:51:56;;;;;;;1.45;0.75;;;22.00;65.00;;;;;;5108830;22;20067;-50
2022/05/01 07:53:59;;;;;;;2.03;1.10;;;22.00;65.10;;;;;;5114132;22;20067;-48
2022/05/01 07:56:01;;;;;;;0.90;0.50;;;22.00;65.10;;;;;;5104994;22;20363;-52
2022/05/01 07:58:03;;;;;;;1.95;0.60;;;21.90;65.10;;;;;;5107098;22;20028;-49
2022/05/01 08:00:07;;;;;;;2.60;0.80;;;21.90;65.10;;;;;;5112823;22;20032;-54
2022/05/01 08:02:09;;;;;;;;;;;21.90;65.10;;;;;;5113366;22;20391;-52
2022/05/01 08:04:29;;;;;;;1.85;0.60;;;21.90;65.10;;;;;;5111663;22;19922;-49
2022/05/01 08:06:32;;;;;;;1.20;0.47;;;21.90;65.20;;;;;;5113160;22;20909;-50
2022/05/01 08:08:34;;;;;;;0.75;0.52;;;21.90;65.20;;;;;;5110238;22;20333;-53
2022/05/01 08:10:36;;;;;;;1.85;0.90;;;21.90;65.20;;;;;;5113405;22;20549;-52
2022/05/01 08:12:38;;;;;;;0.63;0.45;;;21.90;65.20;;;;;;5117559;22;20745;-48
2022/05/01 08:14:41;;;;;;;1.35;0.57;;;21.90;65.30;;;;;;5108499;22;20098;-51
2022/05/01 08:16:43;;;;;;;;;;;21.90;65.30;;;;;;5108448;22;20439;-51
2022/05/01 08:21:12;;;;;;;1.33;0.90;;;21.90;65.40;;;;;;5105836;23;20024;-51
2022/05/01 08:23:23;;;;;;;0.95;0.60;;;21.90;65.40;;;;;;5106763;23;20686;-51
2022/05/01 08:25:26;;;;;;;2.13;1.10;;;21.90;65.50;;;;;;5111684;22;20042;-53
2022/05/01 08:27:28;;;;;;;2.72;1.10;;;21.90;65.50;;;;;;5113876;23;20040;-49
2022/05/01 08:29:31;;;;;;;1.83;0.90;;;21.80;65.50;;;;;;5113448;22;20050;-52
2022/05/01 08:31:33;;;;;;;2.38;0.95;;;21.80;65.60;;;;;;5112819;22;20055;-51
2022/05/01 08:33:37;;;;;;;2.40;1.10;;;21.80;65.70;;;;;;5119073;22;20111;-49
2022/05/01 08:35:39;;;;;;;1.38;0.90;;;21.80;65.70;;;;;;5113196;22;20036;-52
2022/05/01 08:37:41;;;;;;;3.20;1.23;;;21.80;65.80;;;;;;5110931;22;20027;-54
2022/05/01 08:39:43;;;;;;;3.08;1.30;;;21.80;66.40;;;;;;5118534;22;20146;-51
2022/05/01 08:41:45;;;;;;;4.95;1.88;;;21.80;66.80;;;;;;5116478;22;20024;-52
2022/05/01 08:43:47;;;;;;;3.42;1.65;;;21.80;67.10;;;;;;5108263;23;20024;-48
2022/05/01 08:46:04;;;;;;;4.22;2.10;;;21.80;67.10;;;;;;5116788;22;20032;-48
2022/05/01 08:48:12;;;;;;;4.15;1.77;;;21.80;67.10;;;;;;5110447;23;20649;-47
2022/05/01 08:50:17;;;;;;;2.78;1.48;;;21.80;67.10;;;;;;5116087;22;20162;-51
2022/05/01 08:52:21;;;;;;;3.63;2.20;;;21.80;67.00;;;;;;5119512;22;20375;-49
2022/05/01 08:54:24;;;;;;;4.40;2.00;;;21.80;67.00;;;;;;5115010;22;20816;-47
2022/05/01 08:56:27;;;;;;;3.60;1.73;;;21.80;67.00;;;;;;5108803;23;20032;-48
2022/05/01 08:58:30;;;;;;;2.70;1.60;;;21.70;66.90;;;;;;5114936;22;20180;-51
2022/05/01 09:00:33;;;;;;;4.68;2.13;;;21.70;66.90;;;;;;5119734;22;20749;-49
2022/05/01 09:02:35;;;;;;;4.80;1.63;;;21.70;66.90;;;;;;5111108;22;20050;-47
2022/05/01 09:04:38;;;;;;;3.78;2.13;;;21.70;66.90;;;;;;5108843;23;20470;-49
2022/05/01 09:06:42;;;;;;;4.25;2.40;;;21.70;66.90;;;;;;5123081;22;20032;-52
2022/05/01 09:08:44;;;;;;;4.50;2.30;;;21.70;66.90;;;;;;5119862;23;21010;-51
2022/05/01 09:10:46;;;;;;;4.75;2.50;;;21.70;67.00;;;;;;5113209;22;20754;-54
2022/05/01 09:12:53;;;;;;;4.07;2.65;;;21.70;67.00;;;;;;5114538;22;20100;-49
2022/05/01 09:14:55;;;;;;;3.60;2.42;;;21.70;67.00;;;;;;5119338;22;20154;-53
2022/05/01 09:17:19;;;;;;;5.25;2.85;;;21.70;67.00;;;;;;5117092;22;20255;-48
2022/05/01 09:19:31;;;;;;;4.57;3.03;;;21.70;67.00;;;;;;5115710;22;20331;-50
2022/05/01 09:21:53;;;;;;;4.75;3.20;;;21.70;67.10;;;;;;5117397;22;20614;-49
2022/05/01 09:24:05;;;;;;;4.57;2.95;;;21.60;67.10;;;;;;5113257;23;20034;-50
2022/05/01 09:26:09;;;;;;;5.15;3.15;;;21.60;67.10;;;;;;5114098;23;20025;-49
2022/05/01 09:28:21;;;;;;;;;;;21.60;67.10;;;;;;5119037;22;20032;-51
2022/05/01 09:30:31;;;;;;;4.40;3.03;;;21.60;67.10;;;;;;5113352;22;20309;-49
2022/05/01 09:32:39;;;;;;;5.32;3.20;;;21.60;67.20;;;;;;5112124;22;20579;-53
2022/05/01 09:34:50;;;;;;;5.10;3.25;;;21.60;67.20;;;;;;5121927;22;20028;-53
2022/05/01 09:36:53;;;;;;;5.70;3.33;;;21.60;67.20;;;;;;5120618;22;20039;-49
2022/05/01 09:39:06;;;;;;;4.32;2.88;;;21.50;67.20;;;;;;5120759;22;20360;-49
2022/05/01 09:41:17;;;;;;;5.88;2.92;;;21.60;67.20;;;;;;5119751;22;20749;-53
2022/05/01 09:43:38;;;;;;;5.15;3.05;;;21.60;67.30;;;;;;5122565;22;20145;-50
2022/05/01 09:45:41;;;;;;;4.82;3.22;;;21.60;67.30;;;;;;5130486;22;20039;-50
2022/05/01 09:47:45;;;;;;;5.07;2.83;;;21.60;67.40;;;;;;5125674;22;20030;-54
2022/05/01 09:49:49;;;;;;;5.07;3.35;;;21.60;67.40;;;;;;5120950;22;20028;-47
2022/05/01 09:51:56;;;;;;;4.75;3.08;;;21.50;67.30;;;;;;5121800;22;20409;-48
2022/05/01 09:54:01;;;;;;;4.97;3.28;;;21.50;67.40;;;;;;5126217;22;20110;-50
2022/05/01 09:56:03;;;;;;;4.65;2.80;;;21.50;67.40;;;;;;5139183;22;20024;-51
2022/05/01 09:58:14;;;;;;;5.18;3.13;;;21.50;67.40;;;;;;5146807;22;20020;-53
2022/05/01 10:00:35;;;;;;;4.60;2.67;;;21.50;67.40;;;;;;5137956;22;20097;-53
2022/05/01 10:02:38;;;;;;;5.03;3.28;;;21.50;67.50;;;;;;5129881;23;20025;-51
2022/05/01 10:04:41;;;;;;;4.72;2.95;;;21.50;67.50;;;;;;5130492;22;20111;-48
2022/05/01 10:06:44;;;;;;;4.10;3.00;;;21.50;67.50;;;;;;5126841;22;20534;-51
2022/05/01 10:08:47;;;;;;;4.97;3.08;;;21.40;67.50;;;;;;5130646;22;20032;-48
2022/05/01 10:10:53;;;;;;;4.93;2.75;;;21.50;67.60;;;;;;5130503;22;20028;-51
2022/05/01 10:12:55;;;;;;;3.67;2.60;;;21.50;67.70;;;;;;5128907;22;20650;-48
2022/05/01 10:14:58;;;;;;;3.50;2.50;;;21.50;67.70;;;;;;5123961;22;20480;-52
2022/05/01 10:17:01;;;;;;;4.05;2.35;;;21.40;67.70;;;;;;5127029;22;20305;-48
2022/05/01 10:19:03;;;;;;;;;;;21.40;67.80;;;;;;5122484;22;20634;-49
2022/05/01 10:21:06;;;;;;;4.30;2.42;;;21.40;67.80;;;;;;5120143;22;20018;-50
2022/05/01 10:23:10;;;;;;;3.85;2.80;;;21.40;67.80;;;;;;5126810;22;20039;-50
2022/05/01 10:25:17;;;;;;;3.65;2.47;;;21.40;67.90;;;;;;5128145;22;20126;-48
2022/05/01 10:27:30;;;;;;;3.78;2.63;;;21.40;67.90;;;;;;5122512;22;20127;-50
2022/05/01 10:32:37;;;;;;;4.05;2.58;;;21.40;68.00;;;;;;5121164;23;20119;-50
2022/05/01 10:35:07;;;;;;;3.33;2.30;;;21.40;68.00;;;;;;5125714;22;20119;-46
2022/05/01 10:37:24;;;;;;;4.07;2.60;;;21.40;68.00;;;;;;5119256;22;20390;-54
2022/05/01 10:39:34;;;;;;;3.97;2.50;;;21.30;68.00;;;;;;5125588;22;20326;-47
2022/05/01 10:41:47;;;;;;;3.83;2.55;;;21.30;68.00;;;;;;5118561;23;20099;-49
2022/05/01 10:44:01;;;;;;;3.85;2.63;;;21.30;68.10;;;;;;5120715;22;20036;-46
2022/05/01 10:46:25;;;;;;;4.85;2.65;;;21.30;68.00;;;;;;5119069;23;20087;-50
2022/05/01 10:48:41;;;;;;;7.50;2.60;;;21.30;68.00;;;;;;5127107;23;20032;-53
2022/05/01 10:50:43;;;;;;;3.80;2.30;;;21.30;68.10;;;;;;5120350;22;20090;-53
2022/05/01 10:53:05;;;;;;;3.20;2.17;;;21.30;68.10;;;;;;5128522;22;20044;-46
2022/05/01 10:55:07;;;;;;;3.70;2.65;;;21.30;68.10;;;;;;5121451;23;20261;-47
2022/05/01 10:57:12;;;;;;;3.50;2.47;;;21.30;68.10;;;;;;5100504;23;20573;-46
2022/05/01 10:59:33;;;;;;;3.05;2.13;;;21.20;68.10;;;;;;5120963;22;20486;-51
2022/05/01 11:01:55;;;;;;;3.63;2.40;;;21.20;68.20;;;;;;5126614;22;20059;-47
2022/05/01 11:03:57;;;;;;;3.95;2.78;;;21.20;68.20;;;;;;5120043;23;20170;-51
2022/05/01 11:06:05;;;;;;;2.83;2.20;;;21.20;68.10;;;;;;5127309;22;20027;-48
2022/05/01 11:08:23;;;;;;;3.75;2.25;;;21.20;68.20;;;;;;5124769;22;20793;-46
2022/05/01 11:10:27;;;;;;;3.92;2.33;;;21.20;68.30;;;;;;5127146;22;20028;-53